RZO22G LPPD-LPAZ
Flight info
| Callsign | RZO22G |
|---|---|
| Flight time | 0h 20m |
| Altitude | 11000 |
| Route | VMG |
| Aircraft | A320/M-SDE3FGHIRWY/LB1 |
Departure
| Time | 2026-05-07 16:31 |
|---|---|
| Airport | João Paulo II Airport (LPPD) |
Arrival
| Time | 2026-05-07 16:51 |
|---|---|
| Airport | Santa Maria Airport (LPAZ) |
| Time | Latitude | Longitude | Altitude | Speed | Heading |
|---|---|---|---|---|---|
| 2026-05-07 16:10 | 37.74874 | -25.71113 | 266 ft | 0 kts | 19° |
| 2026-05-07 16:25 | 37.74874 | -25.71114 | 266 ft | 0 kts | 19° |
| 2026-05-07 16:26 | 37.74874 | -25.71106 | 266 ft | 2 kts | 82° |
| 2026-05-07 16:26 | 37.74829 | -25.71117 | 266 ft | 12 kts | 191° |
| 2026-05-07 16:26 | 37.74781 | -25.71057 | 266 ft | 10 kts | 110° |
| 2026-05-07 16:26 | 37.74765 | -25.71001 | 264 ft | 12 kts | 110° |
| 2026-05-07 16:27 | 37.74659 | -25.70671 | 252 ft | 50 kts | 112° |
| 2026-05-07 16:27 | 37.74521 | -25.70391 | 242 ft | 14 kts | 144° |
| 2026-05-07 16:27 | 37.74485 | -25.70356 | 241 ft | 2 kts | 141° |
| 2026-05-07 16:27 | 37.74434 | -25.70303 | 239 ft | 26 kts | 140° |
| 2026-05-07 16:28 | 37.74306 | -25.70067 | 231 ft | 32 kts | 105° |
| 2026-05-07 16:28 | 37.74225 | -25.69823 | 219 ft | 28 kts | 105° |
| 2026-05-07 16:28 | 37.74143 | -25.69591 | 213 ft | 31 kts | 112° |
| 2026-05-07 16:28 | 37.74049 | -25.69290 | 203 ft | 39 kts | 112° |
| 2026-05-07 16:29 | 37.73978 | -25.69066 | 200 ft | 42 kts | 111° |
| 2026-05-07 16:29 | 37.73890 | -25.68755 | 183 ft | 36 kts | 110° |
| 2026-05-07 16:29 | 37.73807 | -25.68575 | 175 ft | 16 kts | 152° |
| 2026-05-07 16:29 | 37.73743 | -25.68485 | 172 ft | 14 kts | 79° |
| 2026-05-07 16:30 | 37.73791 | -25.68474 | 172 ft | 2 kts | 293° |
| 2026-05-07 16:30 | 37.73803 | -25.68512 | 173 ft | 19 kts | 292° |
| 2026-05-07 16:30 | 37.73939 | -25.68952 | 196 ft | 85 kts | 291° |
| 2026-05-07 16:30 | 37.74217 | -25.69840 | 370 ft | 120 kts | 290° |
| 2026-05-07 16:31 | 37.74506 | -25.70804 | 1074 ft | 118 kts | 292° |
| 2026-05-07 16:31 | 37.74511 | -25.71891 | 1732 ft | 143 kts | 264° |
| 2026-05-07 16:31 | 37.73826 | -25.73017 | 2068 ft | 188 kts | 223° |
| 2026-05-07 16:31 | 37.72423 | -25.73349 | 2393 ft | 228 kts | 175° |
| 2026-05-07 16:32 | 37.70959 | -25.72328 | 2666 ft | 258 kts | 130° |
| 2026-05-07 16:32 | 37.69892 | -25.70378 | 3087 ft | 282 kts | 123° |
| 2026-05-07 16:32 | 37.68398 | -25.68678 | 3699 ft | 296 kts | 153° |
| 2026-05-07 16:32 | 37.66509 | -25.67608 | 4604 ft | 298 kts | 163° |
| 2026-05-07 16:33 | 37.64536 | -25.66786 | 5547 ft | 300 kts | 168° |
| 2026-05-07 16:33 | 37.62529 | -25.66004 | 6462 ft | 303 kts | 167° |
| 2026-05-07 16:33 | 37.60539 | -25.65187 | 7334 ft | 307 kts | 166° |
| 2026-05-07 16:33 | 37.58508 | -25.64286 | 8177 ft | 312 kts | 164° |
| 2026-05-07 16:34 | 37.56465 | -25.63316 | 9038 ft | 315 kts | 163° |
| 2026-05-07 16:34 | 37.54411 | -25.62298 | 9667 ft | 318 kts | 162° |
| 2026-05-07 16:34 | 37.52359 | -25.61255 | 9842 ft | 318 kts | 162° |
| 2026-05-07 16:34 | 37.50307 | -25.60201 | 9887 ft | 318 kts | 162° |
| 2026-05-07 16:35 | 37.48256 | -25.59151 | 9893 ft | 318 kts | 162° |
| 2026-05-07 16:35 | 37.46206 | -25.58107 | 9892 ft | 318 kts | 162° |
| 2026-05-07 16:35 | 37.44153 | -25.57065 | 9893 ft | 318 kts | 162° |
| 2026-05-07 16:35 | 37.42127 | -25.56039 | 9890 ft | 318 kts | 162° |
| 2026-05-07 16:36 | 37.40075 | -25.54999 | 9895 ft | 318 kts | 162° |
| 2026-05-07 16:36 | 37.38016 | -25.53956 | 9900 ft | 318 kts | 162° |
| 2026-05-07 16:36 | 37.35960 | -25.52915 | 9892 ft | 318 kts | 162° |
| 2026-05-07 16:36 | 37.33902 | -25.51872 | 9898 ft | 319 kts | 162° |
| 2026-05-07 16:37 | 37.31845 | -25.50831 | 9898 ft | 318 kts | 162° |
| 2026-05-07 16:37 | 37.29790 | -25.49794 | 9900 ft | 319 kts | 163° |
| 2026-05-07 16:37 | 37.27734 | -25.48757 | 9900 ft | 319 kts | 162° |
| 2026-05-07 16:37 | 37.25672 | -25.47720 | 9906 ft | 319 kts | 163° |
| 2026-05-07 16:38 | 37.23612 | -25.46685 | 9900 ft | 319 kts | 163° |
| 2026-05-07 16:38 | 37.21555 | -25.45652 | 9901 ft | 319 kts | 163° |
| 2026-05-07 16:38 | 37.19498 | -25.44623 | 9902 ft | 318 kts | 163° |
| 2026-05-07 16:38 | 37.17465 | -25.43609 | 9900 ft | 318 kts | 163° |
| 2026-05-07 16:39 | 37.15408 | -25.42583 | 9901 ft | 318 kts | 163° |
| 2026-05-07 16:39 | 37.13354 | -25.41550 | 9903 ft | 318 kts | 162° |
| 2026-05-07 16:39 | 37.11297 | -25.40513 | 9907 ft | 319 kts | 162° |
| 2026-05-07 16:39 | 37.09259 | -25.39487 | 9907 ft | 309 kts | 163° |
| 2026-05-07 16:40 | 37.07306 | -25.38501 | 9899 ft | 298 kts | 163° |
| 2026-05-07 16:40 | 37.05388 | -25.37537 | 9901 ft | 295 kts | 163° |
| 2026-05-07 16:40 | 37.03480 | -25.36585 | 9886 ft | 295 kts | 163° |
| 2026-05-07 16:40 | 37.01589 | -25.35646 | 9628 ft | 298 kts | 163° |
| 2026-05-07 16:41 | 36.99672 | -25.34695 | 9396 ft | 292 kts | 163° |
| 2026-05-07 16:41 | 36.97812 | -25.33767 | 9225 ft | 283 kts | 163° |
| 2026-05-07 16:41 | 36.95999 | -25.32860 | 8953 ft | 279 kts | 163° |
| 2026-05-07 16:41 | 36.94226 | -25.31972 | 8773 ft | 267 kts | 163° |
| 2026-05-07 16:42 | 36.92549 | -25.31128 | 8622 ft | 252 kts | 163° |
| 2026-05-07 16:42 | 36.90961 | -25.30330 | 8487 ft | 239 kts | 164° |
| 2026-05-07 16:42 | 36.89444 | -25.29573 | 8255 ft | 232 kts | 164° |
| 2026-05-07 16:42 | 36.87949 | -25.28831 | 7972 ft | 229 kts | 164° |
| 2026-05-07 16:43 | 36.86475 | -25.28100 | 7568 ft | 228 kts | 164° |
| 2026-05-07 16:43 | 36.84997 | -25.27369 | 7018 ft | 235 kts | 164° |
| 2026-05-07 16:43 | 36.83452 | -25.26607 | 6393 ft | 243 kts | 163° |
| 2026-05-07 16:43 | 36.81859 | -25.25817 | 5777 ft | 247 kts | 163° |
| 2026-05-07 16:44 | 36.80297 | -25.24983 | 5373 ft | 242 kts | 154° |
| 2026-05-07 16:44 | 36.79052 | -25.23654 | 5056 ft | 231 kts | 128° |
| 2026-05-07 16:44 | 36.78341 | -25.21967 | 4775 ft | 211 kts | 104° |
| 2026-05-07 16:44 | 36.78150 | -25.20251 | 4466 ft | 191 kts | 81° |
| 2026-05-07 16:45 | 36.78317 | -25.18680 | 4190 ft | 177 kts | 72° |
| 2026-05-07 16:45 | 36.78502 | -25.17214 | 4003 ft | 172 kts | 71° |
| 2026-05-07 16:45 | 36.78761 | -25.15765 | 3789 ft | 163 kts | 54° |
| 2026-05-07 16:45 | 36.79380 | -25.14688 | 3574 ft | 149 kts | 28° |
| 2026-05-07 16:46 | 36.80228 | -25.14071 | 3383 ft | 136 kts | 5° |
| 2026-05-07 16:46 | 36.81119 | -25.13912 | 3219 ft | 125 kts | 347° |
| 2026-05-07 16:46 | 36.81973 | -25.14068 | 3078 ft | 126 kts | 341° |
| 2026-05-07 16:46 | 36.82850 | -25.14247 | 2884 ft | 128 kts | 341° |
| 2026-05-07 16:47 | 36.83729 | -25.14415 | 2690 ft | 128 kts | 341° |
| 2026-05-07 16:47 | 36.84607 | -25.14581 | 2505 ft | 128 kts | 342° |
| 2026-05-07 16:47 | 36.85482 | -25.14747 | 2326 ft | 127 kts | 342° |
| 2026-05-07 16:47 | 36.86352 | -25.14911 | 2170 ft | 127 kts | 342° |
| 2026-05-07 16:48 | 36.87225 | -25.15074 | 2002 ft | 126 kts | 341° |
| 2026-05-07 16:48 | 36.88080 | -25.15236 | 1839 ft | 125 kts | 340° |
| 2026-05-07 16:48 | 36.88942 | -25.15410 | 1676 ft | 125 kts | 341° |
| 2026-05-07 16:48 | 36.89806 | -25.15585 | 1500 ft | 125 kts | 341° |
| 2026-05-07 16:49 | 36.90681 | -25.15760 | 1319 ft | 125 kts | 340° |
| 2026-05-07 16:49 | 36.91528 | -25.15930 | 1161 ft | 125 kts | 340° |
| 2026-05-07 16:49 | 36.92381 | -25.16104 | 1013 ft | 124 kts | 341° |
| 2026-05-07 16:49 | 36.93240 | -25.16281 | 832 ft | 127 kts | 341° |
| 2026-05-07 16:50 | 36.94108 | -25.16457 | 695 ft | 126 kts | 341° |
| 2026-05-07 16:50 | 36.94987 | -25.16635 | 516 ft | 126 kts | 345° |
| 2026-05-07 16:50 | 36.95837 | -25.16796 | 355 ft | 124 kts | 343° |
| 2026-05-07 16:50 | 36.96641 | -25.16949 | 305 ft | 96 kts | 340° |
| 2026-05-07 16:51 | 36.97022 | -25.17048 | 303 ft | 33 kts | 355° |
| 2026-05-07 16:51 | 36.97221 | -25.17076 | 306 ft | 25 kts | 353° |
| 2026-05-07 16:51 | 36.97360 | -25.17086 | 307 ft | 14 kts | 28° |
| 2026-05-07 16:51 | 36.97361 | -25.16973 | 305 ft | 15 kts | 102° |
| 2026-05-07 16:52 | 36.97353 | -25.16869 | 304 ft | 10 kts | 90° |
| 2026-05-07 16:52 | 36.97353 | -25.16786 | 303 ft | 9 kts | 90° |
| 2026-05-07 16:52 | 36.97362 | -25.16716 | 303 ft | 8 kts | 79° |
| 2026-05-07 16:52 | 36.97390 | -25.16680 | 306 ft | 5 kts | 6° |
| 2026-05-07 16:53 | 36.97423 | -25.16689 | 304 ft | 0 kts | 350° |